Weather forecasts are calculated to a 100 metre elevation grid, providing ultimate accuracy for high elevation routes. See the “severe weather” column for any noteworthy conditions.
For use of the snow symbols: HWC = high water content (wet snow). MWC = moderate water content. NWC = low water content (powder type). Confidence of snow accumulation is increased during incidence of NWC.


Time. Apparent Temperature Rain Cloud Dir Avg. Wind Gust. Wind Snow Accum. Chance of settle. Freezing height(beta) Dew Point Severe Weather
Thu 08th 11:00 16.0°C 0.0 mm 66% 11 mph 21 mph 0.00 cm % 2,130m 11.2°C
12:00 16.1°C 0.0 mm 67% 11 mph 21 mph 0.00 cm % 2,140m 10.9°C
13:00 16.2°C 0.0 mm 73% 11 mph 20 mph 0.00 cm % 2,161m 10.4°C
14:00 16.7°C 0.0 mm 69% 11 mph 20 mph 0.00 cm % 1,671m 9.7°C
15:00 17.1°C 0.0 mm 70% 13 mph 23 mph 0.00 cm % 1,706m 9.5°C
16:00 16.7°C 0.0 mm 65% 13 mph 23 mph 0.00 cm % 1,671m 9.5°C
17:00 16.3°C 0.0 mm 63% 12 mph 21 mph 0.00 cm % 1,626m 9.7°C
18:00 15.8°C 0.0 mm 63% 10 mph 18 mph 0.00 cm % 2,104m 11.0°C
19:00 14.5°C 0.0 mm 74% 8 mph 16 mph 0.00 cm % 2,417m 11.1°C
20:00 12.6°C 0.0 mm 69% 6 mph 11 mph 0.00 cm % 2,526m 10.8°C
21:00 11.2°C mist/fog in vicinity 0.0 mm 68% 5 mph 9 mph 0.00 cm % 2,238m 9.8°C poor vis, mist
22:00 10.7°C mist/fog in vicinity 0.0 mm 69% 5 mph 9 mph 0.00 cm % 2,132m 9.7°C poor vis, mist
23:00 10.3°C mist/fog 0.0 mm 63% 4 mph 8 mph 0.00 cm % 2,054m 9.5°C poor vis, mist
Fri 09th 00:00 10.0°C mist/fog 0.0 mm 57% 4 mph 8 mph 0.00 cm % 2,000m 9.4°C poor vis, mist
01:00 9.8°C mist/fog 0.0 mm 73% 4 mph 8 mph 0.00 cm % 1,956m 9.2°C poor vis, mist
02:00 9.8°C mist/fog 0.0 mm 81% 4 mph 7 mph 0.00 cm % 1,966m 9.4°C poor vis, mist
03:00 9.7°C mist/fog 0.0 mm 81% 4 mph 7 mph 0.00 cm % 1,934m 9.3°C poor vis, mist
04:00 9.4°C mist/fog 0.0 mm 78% 4 mph 7 mph 0.00 cm % 1,882m 8.8°C poor vis, mist
05:00 10.3°C mist/fog 0.0 mm 76% 3 mph 6 mph 0.00 cm % 2,060m 9.5°C poor vis, mist
06:00 12.0°C mist/fog in vicinity 0.0 mm 74% 4 mph 6 mph 0.00 cm % 2,398m 10.4°C poor vis, mist
07:00 13.4°C 0.0 mm 52% 4 mph 6 mph 0.00 cm % 2,233m 10.8°C
08:00 14.6°C 0.0 mm 50% 3 mph 6 mph 0.00 cm % 2,431m 10.8°C
09:00 15.3°C 0.0 mm 64% 3 mph 6 mph 0.00 cm % 2,036m 10.9°C
10:00 15.1°C 0.0 mm 72% 4 mph 7 mph 0.00 cm % 2,010m 10.9°C
11:00 15.4°C 0.0 mm 78% 5 mph 8 mph 0.00 cm % 2,053m 11.0°C
12:00 16.5°C 0.0 mm 81% 6 mph 10 mph 0.00 cm % 2,195m 10.9°C
13:00 17.5°C 0.0 mm 84% 7 mph 13 mph 0.00 cm % 1,754m 10.9°C
14:00 17.9°C 0.0 mm 86% 8 mph 14 mph 0.00 cm % 1,789m 10.9°C
15:00 17.9°C 0.0 mm 89% 8 mph 14 mph 0.00 cm % 1,790m 11.1°C
16:00 17.9°C 0.0 mm 89% 6 mph 11 mph 0.00 cm % 1,785m 11.1°C
17:00 17.6°C 0.0 mm 90% 5 mph 10 mph 0.00 cm % 1,762m 11.0°C
18:00 16.9°C 0.0 mm 91% 6 mph 12 mph 0.00 cm % 2,253m 12.5°C
19:00 15.4°C rainfall in vicinity 0.1 mm 100% 6 mph 10 mph 0.00 cm % 2,573m 12.8°C
20:00 13.7°C mist/fog in vicinity 0.0 mm 100% 4 mph 7 mph 0.00 cm % 2,748m 11.9°C poor vis, mist
21:00 12.8°C mist/fog in vicinity 0.0 mm 100% 3 mph 6 mph 0.00 cm % 2,566m 11.2°C poor vis, mist
22:00 12.4°C mist/fog in vicinity 0.0 mm 100% 3 mph 6 mph 0.00 cm % 2,488m 11.0°C poor vis, mist
23:00 12.3°C mist/fog in vicinity 0.0 mm 100% 3 mph 6 mph 0.00 cm % 2,456m 11.1°C poor vis, mist
Sat 10th 00:00 12.2°C mist/fog in vicinity 0.0 mm 100% 4 mph 7 mph 0.00 cm % 2,434m 11.2°C poor vis, mist
01:00 12.0°C mist/fog in vicinity 0.0 mm 100% 3 mph 6 mph 0.00 cm % 2,408m 11.0°C poor vis, mist
02:00 11.5°C rainfall in vicinity 0.2 mm 100% 3 mph 6 mph 0.00 cm % 2,306m 10.7°C
03:00 11.3°C rainfall in vicinity 0.2 mm 100% 3 mph 6 mph 0.00 cm % 2,254m 10.7°C
04:00 11.1°C light rain 0.3 mm 100% 2 mph 3 mph 0.00 cm % 2,218m 10.7°C
05:00 11.6°C light rain 0.4 mm 100% 3 mph 6 mph 0.00 cm % 2,326m 11.2°C
06:00 12.3°C light rain 0.6 mm 100% 3 mph 6 mph 0.00 cm % 2,462m 11.5°C
07:00 13.0°C mist/fog 0.0 mm 100% 2 mph 4 mph 0.00 cm % 2,600m 11.8°C poor vis, mist
08:00 13.7°C rainfall in vicinity 0.3 mm 100% 2 mph 3 mph 0.00 cm % 2,742m 11.9°C
09:00 14.1°C light rain 0.9 mm 100% 1 mph 2 mph 0.00 cm % 2,812m 12.1°C
10:00 14.3°C moderate rain 1.7 mm 100% 1 mph 1 mph 0.00 cm % 2,390m 12.1°C
11:00 14.6°C moderate rain 1.8 mm 100% 1 mph 1 mph 0.00 cm % 2,435m 12.4°C
12:00 14.8°C moderate rain 1.5 mm 100% 1 mph 2 mph 0.00 cm % 2,467m 12.6°C
13:00 15.3°C moderate rain 1.4 mm 100% 1 mph 1 mph 0.00 cm % 2,554m 12.5°C
14:00 16.1°C moderate rain 1.4 mm 100% 3 mph 6 mph 0.00 cm % 2,680m 12.9°C
15:00 16.4°C moderate rain 1.4 mm 100% 5 mph 9 mph 0.00 cm % 2,735m 12.8°C
16:00 16.7°C moderate rain 1.6 mm 99% 7 mph 12 mph 0.00 cm % 2,777m 13.1°C
17:00 16.5°C light rain 1.1 mm 97% 8 mph 15 mph 0.00 cm % 2,752m 12.9°C
18:00 16.2°C light rain 0.6 mm 93% 9 mph 16 mph 0.00 cm % 2,698m 13.4°C
19:00 15.2°C light rain 0.4 mm 63% 9 mph 16 mph 0.00 cm % 3,034m 13.2°C
20:00 13.7°C light rain 0.5 mm 73% 7 mph 12 mph 0.00 cm % 2,744m 12.5°C
21:00 13.3°C rainfall in vicinity 0.1 mm 80% 5 mph 9 mph 0.00 cm % 2,666m 12.3°C
22:00 12.9°C rainfall in vicinity 0.2 mm 85% 5 mph 9 mph 0.00 cm % 2,582m 12.1°C
23:00 12.6°C mist/fog 0.0 mm 88% 5 mph 9 mph 0.00 cm % 2,512m 11.8°C poor vis, mist
Sun 11th 00:00 12.3°C mist/fog 0.0 mm 90% 4 mph 6 mph 0.00 cm % 2,454m 11.5°C poor vis, mist
01:00 11.9°C mist/fog in vicinity 0.0 mm 100% 4 mph 8 mph 0.00 cm % 2,384m 10.9°C poor vis, mist
02:00 11.7°C mist/fog in vicinity 0.0 mm 97% 4 mph 7 mph 0.00 cm % 2,334m 10.7°C poor vis, mist
03:00 11.2°C mist/fog 0.0 mm 96% 2 mph 4 mph 0.00 cm % 2,244m 10.2°C poor vis, mist
04:00 10.3°C mist/fog 0.0 mm 94% 3 mph 5 mph 0.00 cm % 2,068m 9.1°C poor vis, mist
05:00 10.8°C mist/fog in vicinity 0.0 mm 95% 3 mph 6 mph 0.00 cm % 2,162m 9.6°C poor vis, mist
06:00 12.1°C mist/fog in vicinity 0.0 mm 95% 2 mph 4 mph 0.00 cm % 2,416m 10.1°C poor vis, mist
07:00 13.4°C 0.0 mm 69% 3 mph 6 mph 0.00 cm % 2,229m 10.6°C
08:00 14.4°C 0.0 mm 84% 6 mph 11 mph 0.00 cm % 2,392m 11.2°C
09:00 15.2°C 0.0 mm 90% 8 mph 14 mph 0.00 cm % 2,525m 11.2°C
10:00 16.0°C 0.0 mm 92% 9 mph 17 mph 0.00 cm % 2,136m 11.2°C
11:00 16.6°C 0.0 mm 94% 12 mph 21 mph 0.00 cm % 2,210m 11.2°C
12:00 16.5°C 0.0 mm 95% 12 mph 23 mph 0.00 cm % 2,204m 11.3°C
13:00 16.6°C rainfall in vicinity 0.2 mm 100% 13 mph 23 mph 0.00 cm % 2,219m 11.6°C
14:00 17.0°C rainfall in vicinity 0.2 mm 100% 13 mph 23 mph 0.00 cm % 2,270m 11.6°C
15:00 16.6°C rainfall in vicinity 0.1 mm 100% 12 mph 23 mph 0.00 cm % 2,210m 11.8°C
16:00 16.5°C rainfall in vicinity 0.1 mm 100% 13 mph 23 mph 0.00 cm % 2,193m 11.7°C
17:00 16.3°C 0.0 mm 100% 12 mph 22 mph 0.00 cm % 2,170m 11.1°C
18:00 15.8°C 0.0 mm 100% 9 mph 16 mph 0.00 cm % 2,110m 11.6°C
19:00 14.5°C light rain 0.3 mm 100% 9 mph 16 mph 0.00 cm % 2,419m 11.7°C
20:00 13.3°C 0.0 mm 100% 7 mph 13 mph 0.00 cm % 2,654m 11.5°C
21:00 12.0°C 0.0 mm 100% 6 mph 11 mph 0.00 cm % 2,396m 11.0°C
22:00 11.6°C mist/fog in vicinity 0.0 mm 100% 6 mph 10 mph 0.00 cm % 2,310m 10.8°C poor vis, mist
23:00 11.8°C rainfall in vicinity 0.1 mm 100% 5 mph 10 mph 0.00 cm % 2,350m 11.2°C
Mon 12th 00:00 11.7°C rainfall in vicinity 0.2 mm 100% 5 mph 9 mph 0.00 cm % 2,330m 11.3°C
01:00 11.6°C light rain 0.6 mm 100% 3 mph 6 mph 0.00 cm % 2,322m 11.4°C
02:00 11.7°C light rain 0.8 mm 100% 3 mph 5 mph 0.00 cm % 2,334m 11.5°C
03:00 11.8°C rainfall in vicinity 0.3 mm 100% 2 mph 4 mph 0.00 cm % 2,352m 11.6°C
04:00 11.8°C rainfall in vicinity 0.1 mm 100% 2 mph 3 mph 0.00 cm % 2,352m 11.6°C
05:00 11.9°C rainfall in vicinity 0.2 mm 100% 3 mph 5 mph 0.00 cm % 2,386m 11.7°C
06:00 12.1°C light rain 0.3 mm 100% 3 mph 5 mph 0.00 cm % 2,418m 11.9°C
07:00 12.3°C light rain 0.5 mm 100% 4 mph 6 mph 0.00 cm % 2,450m 11.9°C
08:00 12.3°C light rain 0.5 mm 100% 5 mph 9 mph 0.00 cm % 2,454m 11.9°C
09:00 12.6°C light rain 0.7 mm 100% 5 mph 9 mph 0.00 cm % 2,510m 11.8°C
10:00 13.4°C light rain 0.6 mm 100% 5 mph 9 mph 0.00 cm % 2,676m 12.0°C